Ibil Airstrip


Codes: AYIB/
Name: Ibil Airstrip
City: Ibil
Country: Papua New Guinea
Elevation: 870 ft.

Photos at Ibil Airstrip


   Photos courtesy of SpottingLog. You can add your own sightings and photos by signing up for a free trial today.



No photos found.

Weather at Ibil Airstrip


Time (UTC)DescriptionTempratureWindCloud coverageVisibilityPressureHumidity
25-Jun-2024 15:00Broken Clouds23°C4 mph, SW74%10000m1014hPa81%
25-Jun-2024 18:00Light Rain23°C4 mph, SW68%10000m1013hPa83%
25-Jun-2024 21:00Broken Clouds23°C2 mph, SW80%10000m1012hPa79%
26-Jun-2024 00:00Overcast Clouds28°C2 mph, NE90%10000m1013hPa66%
26-Jun-2024 03:00Light Rain31°C4 mph, NE36%10000m1010hPa59%
26-Jun-2024 06:00Light Rain28°C2 mph, NE50%6734m1009hPa81%
26-Jun-2024 09:00Light Rain25°C2 mph, SW87%6510m1011hPa93%
26-Jun-2024 12:00Light Rain24°C4 mph, S91%9022m1013hPa91%
26-Jun-2024 15:00Light Rain23°C4 mph, SW100%10000m1012hPa90%
26-Jun-2024 18:00Light Rain22°C4 mph, SW100%10000m1012hPa93%
26-Jun-2024 21:00Overcast Clouds22°C4 mph, SW97%10000m1014hPa92%
27-Jun-2024 00:00Overcast Clouds28°C4 mph, NE93%10000m1013hPa69%
27-Jun-2024 03:00Light Rain31°C4 mph, N90%10000m1010hPa57%
27-Jun-2024 06:00Light Rain30°C4 mph, NE94%10000m1009hPa63%
27-Jun-2024 09:00Light Rain24°C4 mph, SW74%1076m1011hPa98%
27-Jun-2024 12:00Moderate Rain23°C4 mph, S87%2013m1014hPa99%
27-Jun-2024 15:00Moderate Rain23°C4 mph, S100%5974m1013hPa99%
27-Jun-2024 18:00Light Rain22°C4 mph, SW94%10000m1012hPa97%
27-Jun-2024 21:00Light Rain22°C4 mph, SW100%10000m1013hPa97%
28-Jun-2024 00:00Light Rain25°C2 mph, NE100%10000m1014hPa96%
28-Jun-2024 03:00Light Rain25°C0 mph, N100%7590m1013hPa92%
28-Jun-2024 06:00Light Rain26°C2 mph, N100%10000m1011hPa93%
28-Jun-2024 09:00Light Rain23°C2 mph, S100%7245m1013hPa98%
28-Jun-2024 12:00Moderate Rain23°C2 mph, SW100%2217m1015hPa99%
28-Jun-2024 15:00Light Rain22°C2 mph, SW100%10000m1014hPa98%
28-Jun-2024 18:00Overcast Clouds21°C4 mph, S100%10000m1013hPa97%
28-Jun-2024 21:00Light Rain22°C4 mph, SW98%10000m1013hPa96%
29-Jun-2024 00:00Overcast Clouds28°C2 mph, NE100%10000m1013hPa65%
29-Jun-2024 03:00Light Rain31°C7 mph, N44%10000m1010hPa55%
29-Jun-2024 06:00Light Rain29°C4 mph, N72%10000m1009hPa66%
29-Jun-2024 09:00Light Rain23°C2 mph, SW95%7379m1012hPa99%
29-Jun-2024 12:00Light Rain22°C4 mph, SW91%5381m1014hPa98%
29-Jun-2024 15:00Light Rain22°C4 mph, SW100%10000m1012hPa97%
29-Jun-2024 18:00Light Rain22°C2 mph, SW95%10000m1012hPa96%
29-Jun-2024 21:00Light Rain22°C2 mph, SW99%10000m1013hPa96%
30-Jun-2024 00:00Light Rain27°C2 mph, NE97%10000m1013hPa76%
30-Jun-2024 03:00Light Rain26°C2 mph, N100%10000m1011hPa92%
30-Jun-2024 06:00Moderate Rain25°C2 mph, NE100%4034m1009hPa97%
30-Jun-2024 09:00Light Rain23°C2 mph, SW100%1330m1012hPa98%
30-Jun-2024 12:00Moderate Rain23°C2 mph, SW100%1158m1014hPa99%